createdAt,value
2023-01-25T00:00:00.939Z,101743.03
2023-01-25T00:02:29.360Z,101736.75
2023-01-25T00:04:57.703Z,101728.50
2023-01-25T00:07:26.135Z,101728.34
2023-01-25T00:09:54.532Z,101729.19
2023-01-25T00:12:22.699Z,101735.34
2023-01-25T00:14:51.285Z,101726.41
2023-01-25T00:17:22.564Z,101728.22
2023-01-25T00:19:51.320Z,101721.94
2023-01-25T00:22:19.643Z,101714.81
2023-01-25T00:24:48.733Z,101720.00
2023-01-25T00:27:17.117Z,101716.38
2023-01-25T00:30:06.100Z,101720.00
2023-01-25T00:32:43.737Z,101704.06
2023-01-25T00:35:13.907Z,101693.59
2023-01-25T00:37:44.983Z,101700.72
2023-01-25T00:40:15.577Z,101686.59
2023-01-25T00:42:43.857Z,101687.44
2023-01-25T00:45:13.103Z,101684.78
2023-01-25T00:47:43.639Z,101685.75
2023-01-25T00:50:12.696Z,101691.06
2023-01-25T00:52:41.748Z,101689.97
2023-01-25T00:55:12.362Z,101685.38
2023-01-25T00:57:40.694Z,101688.72
2023-01-25T01:00:10.675Z,101685.09
2023-01-25T01:02:39.961Z,101673.47
2023-01-25T01:05:11.035Z,101671.53
2023-01-25T01:07:39.990Z,101664.41
2023-01-25T01:10:09.658Z,101657.44
2023-01-25T01:12:37.892Z,101665.25
2023-01-25T01:15:07.721Z,101660.66
2023-01-25T01:17:36.218Z,101643.75
2023-01-25T01:20:04.550Z,101643.63
2023-01-25T01:22:34.252Z,101654.81
2023-01-25T01:25:03.175Z,101656.47
2023-01-25T01:27:34.113Z,101647.38
2023-01-25T01:30:02.626Z,101632.44
2023-01-25T01:32:32.717Z,101635.91
2023-01-25T01:35:01.223Z,101637.47
2023-01-25T01:37:29.727Z,101633.69
2023-01-25T01:39:59.488Z,101632.59
2023-01-25T01:42:28.491Z,101633.16
2023-01-25T01:44:56.926Z,101620.72
2023-01-25T01:47:29.857Z,101620.56
2023-01-25T01:50:04.089Z,101607.97
2023-01-25T01:52:38.245Z,101613.16
2023-01-25T01:55:11.969Z,101619.31
2023-01-25T01:57:46.652Z,101612.88
2023-01-25T02:00:19.496Z,101609.25
2023-01-25T02:03:00.876Z,101595.84
2023-01-25T02:05:35.614Z,101601.00
2023-01-25T02:08:05.320Z,101593.56
2023-01-25T02:10:36.102Z,101591.78
2023-01-25T02:13:04.639Z,101594.31
2023-01-25T02:15:40.372Z,101580.03
2023-01-25T02:18:10.394Z,101574.72
2023-01-25T02:20:41.024Z,101582.69
2023-01-25T02:23:17.852Z,101571.09
2023-01-25T02:25:48.156Z,101580.03
2023-01-25T02:28:22.310Z,101575.56
2023-01-25T02:30:50.621Z,101565.66
2023-01-25T02:33:19.035Z,101568.31
2023-01-25T02:35:50.328Z,101556.97
2023-01-25T02:38:21.326Z,101557.97
2023-01-25T02:40:57.773Z,101557.97
2023-01-25T02:43:31.138Z,101555.44
2023-01-25T02:46:57.341Z,101549.16
2023-01-25T02:49:26.506Z,101546.75
2023-01-25T02:51:59.052Z,101542.44
2023-01-25T02:54:27.849Z,101544.53
2023-01-25T02:56:57.588Z,101552.50
2023-01-25T02:59:25.975Z,101550.13
2023-01-25T03:01:54.484Z,101542.88
2023-01-25T03:04:23.101Z,101545.53
2023-01-25T03:06:52.966Z,101541.88
2023-01-25T03:09:24.020Z,101532.25
2023-01-25T03:11:52.223Z,101535.72
2023-01-25T03:14:21.938Z,101533.78
2023-01-25T03:16:50.670Z,101523.00
2023-01-25T03:19:18.996Z,101524.66
2023-01-25T03:21:47.967Z,101530.81
2023-01-25T03:24:16.434Z,101515.59
2023-01-25T03:27:02.764Z,101521.88
2023-01-25T03:29:33.704Z,101520.78
2023-01-25T03:32:02.185Z,101514.50
2023-01-25T03:34:31.160Z,101510.72
2023-01-25T03:36:59.858Z,101501.91
2023-01-25T03:39:28.649Z,101500.09
2023-01-25T03:41:58.198Z,101497.16
2023-01-25T03:44:26.423Z,101489.88
2023-01-25T03:46:56.121Z,101488.88
2023-01-25T03:49:25.836Z,101491.25
2023-01-25T03:51:55.589Z,101481.59
2023-01-25T03:54:24.236Z,101479.63
2023-01-25T03:56:53.341Z,101477.97
2023-01-25T03:59:21.788Z,101456.84
2023-01-25T04:01:50.034Z,101458.53
2023-01-25T04:04:19.818Z,101457.69
2023-01-25T04:06:52.842Z,101449.59
2023-01-25T04:09:21.097Z,101445.25
2023-01-25T04:11:51.330Z,101457.00
2023-01-25T04:14:31.749Z,101450.69
2023-01-25T04:17:08.461Z,101450.56
2023-01-25T04:19:38.305Z,101449.88
2023-01-25T04:22:06.529Z,101448.88
2023-01-25T04:24:53.701Z,101447.06
2023-01-25T04:27:22.068Z,101443.44
2023-01-25T04:29:50.444Z,101438.81
2023-01-25T04:32:19.189Z,101445.81
2023-01-25T04:34:49.376Z,101439.66
2023-01-25T04:37:18.168Z,101432.66
2023-01-25T04:39:47.333Z,101434.47
2023-01-25T04:42:18.018Z,101435.47
2023-01-25T04:44:46.474Z,101425.53
2023-01-25T04:47:14.754Z,101426.91
2023-01-25T04:49:43.234Z,101423.56
2023-01-25T04:52:13.026Z,101417.41
2023-01-25T04:54:42.427Z,101422.59
2023-01-25T04:57:10.831Z,101421.88
2023-01-25T04:59:39.039Z,101416.56
2023-01-25T05:02:07.538Z,101416.56
2023-01-25T05:04:35.958Z,101412.25
2023-01-25T05:07:09.573Z,101411.41
2023-01-25T05:09:39.527Z,101408.06
2023-01-25T05:12:11.992Z,101405.53
2023-01-25T05:14:40.754Z,101390.78
2023-01-25T05:17:10.715Z,101391.59
2023-01-25T05:19:42.172Z,101390.78
2023-01-25T05:22:15.959Z,101396.06
2023-01-25T05:24:46.552Z,101391.06
2023-01-25T05:27:15.920Z,101395.25
2023-01-25T05:29:45.970Z,101393.44
2023-01-25T05:32:16.373Z,101388.78
2023-01-25T05:34:45.077Z,101392.25
2023-01-25T05:37:16.756Z,101383.22
2023-01-25T05:40:13.860Z,101375.97
2023-01-25T05:42:42.446Z,101378.75
2023-01-25T05:45:12.059Z,101386.88
2023-01-25T05:47:41.617Z,101386.88
2023-01-25T05:50:11.125Z,101374.84
2023-01-25T05:52:39.655Z,101376.53
2023-01-25T05:55:08.745Z,101380.88
2023-01-25T05:57:39.331Z,101386.31
2023-01-25T06:00:09.233Z,101376.53
2023-01-25T06:02:37.877Z,101378.22
2023-01-25T06:05:07.190Z,101378.06
2023-01-25T06:07:36.982Z,101377.22
2023-01-25T06:10:06.213Z,101379.19
2023-01-25T06:12:39.827Z,101377.38
2023-01-25T06:15:09.499Z,101373.16
2023-01-25T06:17:39.243Z,101371.78
2023-01-25T06:20:08.647Z,101374.59
2023-01-25T06:22:37.008Z,101373.63
2023-01-25T06:25:06.137Z,101362.16
2023-01-25T06:27:34.612Z,101369.13
2023-01-25T06:30:05.426Z,101359.09
2023-01-25T06:32:34.585Z,101361.16
2023-01-25T06:35:04.171Z,101362.16
2023-01-25T06:37:32.411Z,101365.78
2023-01-25T06:40:01.732Z,101364.13
2023-01-25T06:42:30.139Z,101349.16
2023-01-25T06:44:58.352Z,101345.13
2023-01-25T06:47:28.312Z,101347.78
2023-01-25T06:49:56.802Z,101343.44
2023-01-25T06:57:02.547Z,101339.97
2023-01-25T06:59:31.081Z,101330.03
2023-01-25T07:01:59.687Z,101319.56
2023-01-25T07:04:31.221Z,101317.88
2023-01-25T07:06:59.745Z,101304.78
2023-01-25T07:09:28.144Z,101319.56
2023-01-25T07:11:56.579Z,101307.25
2023-01-25T07:14:27.921Z,101305.44
2023-01-25T07:16:56.499Z,101311.31
2023-01-25T07:19:29.711Z,101301.38
2023-01-25T07:21:58.003Z,101306.53
2023-01-25T07:24:29.898Z,101307.53
2023-01-25T07:26:58.224Z,101309.34
2023-01-25T07:29:26.865Z,101303.03
2023-01-25T07:31:55.362Z,101298.03
2023-01-25T07:34:30.538Z,101295.22
2023-01-25T07:37:00.650Z,101290.06
2023-01-25T07:39:30.162Z,101294.53
2023-01-25T07:41:58.744Z,101280.72
2023-01-25T07:44:27.079Z,101272.91
2023-01-25T07:46:55.342Z,101268.28
2023-01-25T07:49:26.649Z,101261.47
2023-01-25T07:51:55.232Z,101255.47
2023-01-25T07:54:30.297Z,101262.44
2023-01-25T07:56:58.551Z,101257.44
2023-01-25T07:59:37.523Z,101255.06
2023-01-25T08:02:06.079Z,101256.50
2023-01-25T08:04:35.080Z,101260.16
2023-01-25T08:07:03.566Z,101267.13
2023-01-25T08:09:44.332Z,101265.59
2023-01-25T08:12:13.116Z,101267.41
2023-01-25T08:14:54.574Z,101259.75
2023-01-25T08:17:22.958Z,101260.16
2023-01-25T08:20:09.792Z,101251.19
2023-01-25T08:22:38.131Z,101258.00
2023-01-25T08:25:09.968Z,101264.00
2023-01-25T08:27:38.717Z,101255.91
2023-01-25T08:30:08.459Z,101252.81
2023-01-25T08:32:38.176Z,101242.41
2023-01-25T08:35:08.204Z,101237.34
2023-01-25T08:37:36.801Z,101230.63
2023-01-25T08:42:50.918Z,101237.16
2023-01-25T08:45:19.953Z,101232.53
2023-01-25T08:47:48.295Z,101235.88
2023-01-25T08:50:17.088Z,101241.84
2023-01-25T08:52:46.886Z,101238.34
2023-01-25T08:55:17.110Z,101233.22
2023-01-25T08:57:45.788Z,101228.50
2023-01-25T09:00:15.609Z,101235.19
2023-01-25T09:02:44.262Z,101225.41
2023-01-25T09:05:12.717Z,101220.53
2023-01-25T09:07:41.175Z,101224.88
2023-01-25T09:10:11.341Z,101223.88
2023-01-25T09:12:42.677Z,101218.47
2023-01-25T09:15:12.061Z,101221.94
2023-01-25T09:17:40.487Z,101234.81
2023-01-25T09:20:10.792Z,101229.63
2023-01-25T09:22:40.769Z,101217.09
2023-01-25T09:25:09.885Z,101215.56
2023-01-25T09:27:38.548Z,101203.56
2023-01-25T09:30:18.212Z,101197.75
2023-01-25T09:32:47.191Z,101208.66
2023-01-25T09:35:16.039Z,101209.50
2023-01-25T09:37:45.277Z,101206.84
2023-01-25T09:40:23.110Z,101211.47
2023-01-25T09:43:04.120Z,101213.44
2023-01-25T09:45:36.206Z,101197.56
2023-01-25T09:48:14.496Z,101202.03
2023-01-25T09:50:57.039Z,101189.06
2023-01-25T09:53:35.903Z,101199.00
2023-01-25T09:56:11.057Z,101199.13
2023-01-25T09:58:44.903Z,101193.00
2023-01-25T10:01:37.396Z,101191.19
2023-01-25T10:04:13.897Z,101199.81
2023-01-25T10:06:54.996Z,101190.34
2023-01-25T10:09:37.829Z,101189.69
2023-01-25T10:12:16.826Z,101187.03
2023-01-25T10:15:03.795Z,101167.91
2023-01-25T10:17:39.021Z,101164.78
2023-01-25T10:20:21.814Z,101156.00
2023-01-25T10:22:53.081Z,101160.72
2023-01-25T10:25:30.033Z,101155.56
2023-01-25T10:28:10.717Z,101140.47
2023-01-25T10:30:44.272Z,101131.22
2023-01-25T10:33:17.136Z,101127.88
2023-01-25T10:35:47.964Z,101132.06
2023-01-25T10:38:21.527Z,101127.63
2023-01-25T10:41:00.238Z,101131.81
2023-01-25T10:43:31.809Z,101132.50
2023-01-25T10:46:00.522Z,101129.31
2023-01-25T10:48:34.552Z,101128.03
2023-01-25T10:51:06.596Z,101124.84
2023-01-25T10:53:38.822Z,101120.44
2023-01-25T10:56:21.412Z,101109.69
2023-01-25T10:58:51.904Z,101100.44
2023-01-25T11:01:31.956Z,101103.94
2023-01-25T11:04:03.328Z,101092.31
2023-01-25T11:06:35.906Z,101075.63
2023-01-25T11:09:32.544Z,101065.22
2023-01-25T11:12:02.915Z,101075.78
2023-01-25T11:14:32.421Z,101056.72
2023-01-25T11:17:02.950Z,101061.72
2023-01-25T11:19:36.168Z,101051.63
2023-01-25T11:22:07.329Z,101045.88
2023-01-25T11:24:37.799Z,101053.66
2023-01-25T11:27:20.201Z,101058.31
2023-01-25T11:30:11.431Z,101052.47
2023-01-25T11:32:41.210Z,101047.31
2023-01-25T11:35:16.202Z,101037.53
2023-01-25T11:38:04.637Z,101042.31
2023-01-25T11:40:39.748Z,101043.16
2023-01-25T11:43:21.782Z,101037.31
2023-01-25T11:46:03.350Z,101038.63
2023-01-25T11:48:55.656Z,101038.91
2023-01-25T11:55:23.397Z,101032.09
2023-01-25T11:58:09.138Z,101036.72
2023-01-25T12:00:50.203Z,101035.72
2023-01-25T12:03:52.883Z,101037.69
2023-01-25T12:06:29.138Z,101029.88
2023-01-25T12:09:17.008Z,101039.03
2023-01-25T12:12:02.540Z,101032.03
2023-01-25T12:14:47.177Z,101013.47
2023-01-25T12:17:33.402Z,101018.09
2023-01-25T12:20:24.867Z,101014.75
2023-01-25T12:23:33.309Z,101012.41
2023-01-25T12:26:14.364Z,101021.66
2023-01-25T12:28:50.524Z,101015.97
2023-01-25T12:31:23.976Z,101008.31
2023-01-25T12:33:57.493Z,101021.59
2023-01-25T12:36:32.896Z,101035.16
2023-01-25T12:39:06.885Z,101028.66
2023-01-25T12:41:42.907Z,101028.66
2023-01-25T12:44:21.103Z,101038.28
2023-01-25T12:46:57.737Z,101039.41
2023-01-25T12:49:31.868Z,101026.28
2023-01-25T12:52:06.257Z,101031.22
2023-01-25T12:54:40.736Z,101045.63
2023-01-25T12:57:21.519Z,101036.59
2023-01-25T13:08:31.118Z,101002.25
2023-01-25T13:11:21.375Z,101001.44
2023-01-25T13:13:49.948Z,100996.97
2023-01-25T13:16:33.059Z,100991.50
2023-01-25T13:19:01.552Z,100992.34
2023-01-25T13:21:47.345Z,100979.22
2023-01-25T13:24:24.715Z,100974.75
2023-01-25T13:27:06.429Z,100972.94
2023-01-25T13:30:00.561Z,100979.09
2023-01-25T13:33:07.077Z,100960.50
2023-01-25T13:35:45.568Z,100960.66
2023-01-25T13:38:40.905Z,100959.97
2023-01-25T13:41:17.277Z,100947.72
2023-01-25T13:43:51.927Z,100953.19
2023-01-25T13:46:25.458Z,100939.09
2023-01-25T13:49:19.070Z,100931.28
2023-01-25T13:51:57.567Z,100936.59
2023-01-25T13:54:25.792Z,100939.53
2023-01-25T13:57:06.696Z,100933.56
2023-01-25T13:59:36.329Z,100935.38
2023-01-25T14:02:05.701Z,100929.38
2023-01-25T14:04:34.187Z,100928.56
2023-01-25T14:07:09.945Z,100919.63
2023-01-25T14:09:38.567Z,100912.66
2023-01-25T14:12:13.620Z,100904.00
2023-01-25T14:15:00.345Z,100902.38
2023-01-25T14:17:28.717Z,100889.25
2023-01-25T14:20:00.159Z,100878.66
2023-01-25T14:22:29.969Z,100872.81
2023-01-25T14:25:08.560Z,100866.97
2023-01-25T14:27:38.971Z,100852.41
2023-01-25T14:30:30.797Z,100845.88
2023-01-25T14:33:04.120Z,100854.28
2023-01-25T14:35:42.728Z,100855.41
2023-01-25T14:38:30.220Z,100853.09
2023-01-25T14:41:04.453Z,100860.19
2023-01-25T14:43:34.505Z,100859.66
2023-01-25T14:46:23.827Z,100854.22
2023-01-25T14:48:53.102Z,100852.41
2023-01-25T14:51:28.632Z,100853.53
2023-01-25T14:54:18.280Z,100849.22
2023-01-25T14:56:48.702Z,100840.56
2023-01-25T14:59:27.854Z,100841.13
2023-01-25T15:01:59.652Z,100829.53
2023-01-25T15:04:28.055Z,100826.72
2023-01-25T15:07:01.113Z,100837.47
2023-01-25T15:09:40.942Z,100842.47
2023-01-25T15:12:29.581Z,100834.84
2023-01-25T15:15:03.821Z,100822.41
2023-01-25T15:17:43.287Z,100827.03
2023-01-25T15:20:39.521Z,100820.22
2023-01-25T15:23:26.355Z,100826.66
2023-01-25T15:25:55.913Z,100818.19
2023-01-25T15:28:25.953Z,100820.84
2023-01-25T15:30:55.126Z,100821.28
2023-01-25T15:33:27.186Z,100827.41
2023-01-25T15:35:58.856Z,100818.78
2023-01-25T15:38:27.266Z,100829.22
2023-01-25T15:41:01.850Z,100819.31
2023-01-25T15:43:31.021Z,100806.91
2023-01-25T15:46:01.709Z,100804.09
2023-01-25T15:48:35.834Z,100802.97
2023-01-25T15:51:04.993Z,100792.88
2023-01-25T15:53:33.484Z,100803.03
2023-01-25T15:59:08.048Z,100800.44
2023-01-25T16:01:36.733Z,100777.41
2023-01-25T16:04:07.044Z,100786.44
2023-01-25T16:06:40.759Z,100786.13
2023-01-25T16:09:21.408Z,100783.16
2023-01-25T16:11:53.223Z,100790.78
2023-01-25T16:17:30.749Z,100785.88
2023-01-25T16:20:00.807Z,100777.78
2023-01-25T16:22:29.404Z,100768.66
2023-01-25T16:24:57.810Z,100770.31
2023-01-25T16:27:35.593Z,100763.88
2023-01-25T16:30:04.604Z,100774.47
2023-01-25T16:32:32.945Z,100780.75
2023-01-25T16:35:17.348Z,100771.81
2023-01-25T16:37:47.579Z,100776.44
2023-01-25T16:40:24.861Z,100783.41
2023-01-25T16:42:53.350Z,100780.91
2023-01-25T16:45:21.980Z,100774.78
2023-01-25T16:47:51.231Z,100774.78
2023-01-25T16:50:22.848Z,100766.66
2023-01-25T16:52:53.051Z,100763.19
2023-01-25T16:55:21.468Z,100766.53
2023-01-25T16:57:52.424Z,100756.75
2023-01-25T17:00:21.523Z,100758.56
2023-01-25T17:02:59.215Z,100747.13
2023-01-25T17:05:33.009Z,100752.44
2023-01-25T17:08:01.437Z,100753.41
2023-01-25T17:10:33.280Z,100761.69
2023-01-25T17:13:02.014Z,100758.03
2023-01-25T17:15:30.620Z,100750.09
2023-01-25T17:18:00.468Z,100750.91
2023-01-25T17:20:31.812Z,100742.97
2023-01-25T17:23:00.408Z,100754.41
2023-01-25T17:25:32.662Z,100761.22
2023-01-25T17:28:01.181Z,100760.38
2023-01-25T17:30:29.417Z,100760.22
2023-01-25T17:32:58.225Z,100750.31
2023-01-25T17:35:26.756Z,100751.28
2023-01-25T17:37:57.489Z,100748.13
2023-01-25T17:40:26.426Z,100738.50
2023-01-25T17:42:55.107Z,100740.31
2023-01-25T17:45:23.358Z,100739.47
2023-01-25T17:47:51.789Z,100738.66
2023-01-25T17:50:20.316Z,100737.81
2023-01-25T17:52:48.905Z,100736.00
2023-01-25T17:55:20.605Z,100739.63
2023-01-25T17:57:48.981Z,100733.34
2023-01-25T18:00:18.293Z,100728.22
2023-01-25T18:02:47.032Z,100729.72
2023-01-25T18:05:15.834Z,100725.59
2023-01-25T18:07:45.265Z,100720.28
2023-01-25T18:10:14.601Z,100720.44
2023-01-25T18:12:46.428Z,100725.22
2023-01-25T18:15:22.372Z,100718.25
2023-01-25T18:17:50.659Z,100717.41
2023-01-25T18:20:19.757Z,100711.13
2023-01-25T18:22:48.032Z,100710.44
2023-01-25T18:25:32.549Z,100702.66
2023-01-25T18:28:03.393Z,100704.16
2023-01-25T18:30:35.552Z,100710.28
2023-01-25T18:33:05.977Z,100706.97
2023-01-25T18:35:35.178Z,100700.81
2023-01-25T18:38:03.465Z,100693.72
2023-01-25T18:40:31.868Z,100691.06
2023-01-25T18:43:02.839Z,100689.38
2023-01-25T18:45:31.308Z,100695.69
2023-01-25T18:48:01.521Z,100686.91
2023-01-25T18:50:31.354Z,100689.53
2023-01-25T18:53:00.136Z,100690.38
2023-01-25T18:55:30.445Z,100675.31
2023-01-25T18:58:04.179Z,100676.13
2023-01-25T19:00:35.505Z,100685.59
2023-01-25T19:03:04.315Z,100681.13
2023-01-25T19:05:34.838Z,100672.50
2023-01-25T19:08:04.616Z,100675.31
2023-01-25T19:10:33.439Z,100662.22
2023-01-25T19:13:03.061Z,100666.38
2023-01-25T19:15:31.582Z,100664.91
2023-01-25T19:18:01.741Z,100656.28
2023-01-25T19:20:30.372Z,100658.09
2023-01-25T19:23:02.139Z,100649.31
2023-01-25T19:25:30.806Z,100653.63
2023-01-25T19:27:59.406Z,100643.03
2023-01-25T19:34:20.312Z,100637.88
2023-01-25T19:36:50.352Z,100636.06
2023-01-25T19:39:19.522Z,100641.69
2023-01-25T19:41:48.111Z,100635.38
2023-01-25T19:44:17.842Z,100644.31
2023-01-25T19:46:46.475Z,100631.91
2023-01-25T19:49:15.208Z,100642.19
2023-01-25T19:51:52.806Z,100648.50
2023-01-25T19:54:31.214Z,100643.03
2023-01-25T19:56:59.794Z,100651.81
2023-01-25T19:59:29.194Z,100638.72
2023-01-25T20:01:58.552Z,100647.50
2023-01-25T20:04:26.905Z,100644.84
2023-01-25T20:06:56.511Z,100631.59
2023-01-25T20:09:28.341Z,100639.41
2023-01-25T20:11:58.376Z,100643.72
2023-01-25T20:14:26.989Z,100640.22
2023-01-25T20:16:56.073Z,100635.59
2023-01-25T20:19:25.492Z,100649.50
2023-01-25T20:21:54.292Z,100648.69
2023-01-25T20:24:24.378Z,100654.00
2023-01-25T20:26:52.816Z,100657.28
2023-01-25T20:29:22.470Z,100662.94
2023-01-25T20:31:50.768Z,100664.41
2023-01-25T20:34:21.010Z,100665.25
2023-01-25T20:36:51.911Z,100655.31
2023-01-25T20:39:21.824Z,100649.72
2023-01-25T20:41:53.830Z,100656.53
2023-01-25T20:44:23.211Z,100652.06
2023-01-25T20:46:55.180Z,100642.94
2023-01-25T20:49:23.699Z,100639.28
2023-01-25T20:51:52.251Z,100639.78
2023-01-25T20:54:22.617Z,100646.91
2023-01-25T20:56:53.100Z,100652.75
2023-01-25T20:59:21.366Z,100643.13
2023-01-25T21:01:50.716Z,100646.75
2023-01-25T21:04:19.525Z,100653.72
2023-01-25T21:06:48.138Z,100627.03
2023-01-25T21:09:18.878Z,100632.84
2023-01-25T21:11:47.251Z,100636.63
2023-01-25T21:14:17.690Z,100642.75
2023-01-25T21:16:46.317Z,100652.53
2023-01-25T21:19:14.710Z,100642.28
2023-01-25T21:21:43.339Z,100644.09
2023-01-25T21:24:12.032Z,100638.13
2023-01-25T21:26:40.413Z,100643.41
2023-01-25T21:29:08.904Z,100642.75
2023-01-25T21:31:42.779Z,100638.28
2023-01-25T21:34:11.823Z,100639.09
2023-01-25T21:36:40.098Z,100644.41
2023-01-25T21:39:19.317Z,100651.06
2023-01-25T21:41:47.994Z,100644.78
2023-01-25T21:44:33.967Z,100638.47
2023-01-25T21:50:11.181Z,100634.81
2023-01-25T21:52:39.670Z,100635.97
2023-01-25T21:55:11.942Z,100622.56
2023-01-25T21:57:46.537Z,100625.38
2023-01-25T22:00:17.835Z,100633.34
2023-01-25T22:02:51.800Z,100634.47
2023-01-25T22:05:20.333Z,100632.81
2023-01-25T22:07:48.673Z,100641.75
2023-01-25T22:10:17.964Z,100633.66
2023-01-25T22:12:50.781Z,100647.88
2023-01-25T22:15:19.113Z,100634.63
2023-01-25T22:17:49.066Z,100642.44
2023-01-25T22:20:26.521Z,100639.78
2023-01-25T22:22:54.833Z,100637.97
2023-01-25T22:25:23.337Z,100629.19
2023-01-25T22:27:56.905Z,100631.81
2023-01-25T22:30:25.369Z,100624.03
2023-01-25T22:32:55.288Z,100623.19
2023-01-25T22:35:23.824Z,100622.38
2023-01-25T22:37:52.305Z,100632.13
2023-01-25T22:40:21.504Z,100623.66
2023-01-25T22:42:50.484Z,100623.19
2023-01-25T22:45:19.579Z,100620.06
2023-01-25T22:47:48.225Z,100628.66
2023-01-25T22:50:18.501Z,100616.25
2023-01-25T22:52:49.068Z,100626.53
2023-01-25T22:55:19.460Z,100623.88
2023-01-25T22:57:47.837Z,100630.84
2023-01-25T23:00:17.635Z,100629.34
2023-01-25T23:02:46.030Z,100631.00
2023-01-25T23:05:14.924Z,100622.22
2023-01-25T23:07:45.035Z,100612.75
2023-01-25T23:10:13.633Z,100613.94
2023-01-25T23:12:42.119Z,100619.56
2023-01-25T23:15:15.764Z,100619.41
2023-01-25T23:18:01.772Z,100611.97
2023-01-25T23:20:33.518Z,100614.94
2023-01-25T23:23:04.405Z,100608.97
2023-01-25T23:25:33.203Z,100608.13
2023-01-25T23:28:01.777Z,100600.34
2023-01-25T23:30:30.694Z,100590.91
2023-01-25T23:32:59.404Z,100603.81
2023-01-25T23:35:29.837Z,100590.91
2023-01-25T23:37:58.364Z,100590.06
2023-01-25T23:40:29.629Z,100573.00
2023-01-25T23:42:58.664Z,100587.75
2023-01-25T23:45:27.627Z,100581.13
2023-01-25T23:47:55.959Z,100597.22
2023-01-25T23:50:24.540Z,100597.38
2023-01-25T23:52:53.744Z,100593.41
2023-01-25T23:55:22.142Z,100588.44
2023-01-25T23:57:55.705Z,100602.50
